createdAt,value
2019-02-17T00:00:58.519Z,3.20
2019-02-17T00:03:28.855Z,3.10
2019-02-17T00:05:59.198Z,3.10
2019-02-17T00:08:29.545Z,3.10
2019-02-17T00:10:59.903Z,3.10
2019-02-17T00:13:30.526Z,3.00
2019-02-17T00:16:03.695Z,3.00
2019-02-17T00:18:34.074Z,3.00
2019-02-17T00:21:04.420Z,3.00
2019-02-17T00:23:34.773Z,2.90
2019-02-17T00:26:05.122Z,2.90
2019-02-17T00:28:35.619Z,2.90
2019-02-17T00:31:06.001Z,2.80
2019-02-17T00:33:36.332Z,2.80
2019-02-17T00:36:06.680Z,2.80
2019-02-17T00:38:37.013Z,2.80
2019-02-17T00:41:07.371Z,2.70
2019-02-17T00:43:37.701Z,2.70
2019-02-17T00:46:08.060Z,2.70
2019-02-17T00:48:38.390Z,2.70
2019-02-17T00:51:08.744Z,2.70
2019-02-17T00:53:39.079Z,2.60
2019-02-17T00:56:09.435Z,2.60
2019-02-17T00:58:39.778Z,2.60
2019-02-17T01:01:10.141Z,2.50
2019-02-17T01:03:40.475Z,2.50
2019-02-17T01:06:10.806Z,2.50
2019-02-17T01:08:41.164Z,2.50
2019-02-17T01:11:11.494Z,2.50
2019-02-17T01:13:41.847Z,2.40
2019-02-17T01:16:12.179Z,2.40
2019-02-17T01:18:42.549Z,2.40
2019-02-17T01:21:12.888Z,2.40
2019-02-17T01:23:43.251Z,2.30
2019-02-17T01:26:13.585Z,2.30
2019-02-17T01:28:43.927Z,2.30
2019-02-17T01:31:14.284Z,2.30
2019-02-17T01:34:07.106Z,2.30
2019-02-17T01:36:37.453Z,2.20
2019-02-17T01:39:09.076Z,2.20
2019-02-17T01:41:39.394Z,2.10
2019-02-17T01:44:09.876Z,2.10
2019-02-17T01:46:40.220Z,2.10
2019-02-17T01:49:10.565Z,2.10
2019-02-17T01:51:40.889Z,2.00
2019-02-17T01:54:11.244Z,2.00
2019-02-17T01:56:41.557Z,2.00
2019-02-17T01:59:11.898Z,2.00
2019-02-17T02:01:42.258Z,2.00
2019-02-17T02:04:12.603Z,2.00
2019-02-17T02:06:43.020Z,1.90
2019-02-17T02:09:13.355Z,1.90
2019-02-17T02:11:43.696Z,1.90
2019-02-17T02:14:14.031Z,1.90
2019-02-17T02:16:44.397Z,1.80
2019-02-17T02:19:14.726Z,1.80
2019-02-17T02:21:45.078Z,1.80
2019-02-17T02:24:15.412Z,1.80
2019-02-17T02:26:45.766Z,1.70
2019-02-17T02:29:16.110Z,1.70
2019-02-17T02:31:46.454Z,1.70
2019-02-17T02:34:16.793Z,1.70
2019-02-17T02:36:47.132Z,1.70
2019-02-17T02:39:17.474Z,1.70
2019-02-17T02:41:47.834Z,1.70
2019-02-17T02:44:18.175Z,1.60
2019-02-17T02:46:48.528Z,1.70
2019-02-17T02:49:18.853Z,1.60
2019-02-17T02:51:49.271Z,1.60
2019-02-17T02:54:19.605Z,1.60
2019-02-17T02:56:49.951Z,1.60
2019-02-17T02:59:20.282Z,1.50
2019-02-17T03:01:50.781Z,1.50
2019-02-17T03:04:21.110Z,1.50
2019-02-17T03:06:53.093Z,1.50
2019-02-17T03:09:23.421Z,1.50
2019-02-17T03:11:53.756Z,1.50
2019-02-17T03:14:24.087Z,1.40
2019-02-17T03:16:54.450Z,1.40
2019-02-17T03:19:24.798Z,1.40
2019-02-17T03:21:55.146Z,1.40
2019-02-17T03:24:25.471Z,1.40
2019-02-17T03:26:55.815Z,1.40
2019-02-17T03:29:26.147Z,1.30
2019-02-17T03:31:56.501Z,1.30
2019-02-17T03:34:26.835Z,1.30
2019-02-17T03:36:57.177Z,1.30
2019-02-17T03:39:27.574Z,1.20
2019-02-17T03:41:57.999Z,1.20
2019-02-17T03:44:28.401Z,1.20
2019-02-17T03:46:58.760Z,1.20
2019-02-17T03:49:29.081Z,1.20
2019-02-17T03:51:59.420Z,1.10
2019-02-17T03:54:29.757Z,1.10
2019-02-17T03:57:00.104Z,1.10
2019-02-17T03:59:30.454Z,1.10
2019-02-17T04:02:00.812Z,1.10
2019-02-17T04:04:31.158Z,1.10
2019-02-17T04:07:01.506Z,1.10
2019-02-17T04:09:31.914Z,1.10
2019-02-17T04:12:02.294Z,1.10
2019-02-17T04:14:45.022Z,1.00
2019-02-17T04:17:15.451Z,1.00
2019-02-17T04:19:45.789Z,1.00
2019-02-17T04:22:16.123Z,1.00
2019-02-17T04:24:46.474Z,1.00
2019-02-17T04:27:16.807Z,1.00
2019-02-17T04:29:47.143Z,0.90
2019-02-17T04:32:17.549Z,0.90
2019-02-17T04:34:47.838Z,0.90
2019-02-17T04:37:18.427Z,0.90
2019-02-17T04:39:48.772Z,0.90
2019-02-17T04:42:19.122Z,0.90
2019-02-17T04:44:49.461Z,0.90
2019-02-17T04:47:19.900Z,0.90
2019-02-17T04:49:50.243Z,0.90
2019-02-17T04:52:20.588Z,0.90
2019-02-17T04:54:50.925Z,0.90
2019-02-17T04:57:21.522Z,1.00
2019-02-17T04:59:51.929Z,1.00
2019-02-17T05:02:22.268Z,1.00
2019-02-17T05:04:52.615Z,1.00
2019-02-17T05:07:22.969Z,1.00
2019-02-17T05:09:53.294Z,1.10
2019-02-17T05:12:23.725Z,1.10
2019-02-17T05:14:54.062Z,1.10
2019-02-17T05:17:24.424Z,1.10
2019-02-17T05:19:54.767Z,1.10
2019-02-17T05:22:25.110Z,1.20
2019-02-17T05:24:55.437Z,1.20
2019-02-17T05:27:25.795Z,1.20
2019-02-17T05:30:01.733Z,1.30
2019-02-17T05:32:32.080Z,1.40
2019-02-17T05:35:02.415Z,1.30
2019-02-17T05:37:32.764Z,1.30
2019-02-17T05:40:03.174Z,1.30
2019-02-17T05:42:33.518Z,1.30
2019-02-17T05:45:05.103Z,1.30
2019-02-17T05:47:35.465Z,1.20
2019-02-17T05:50:07.707Z,1.20
2019-02-17T05:52:38.062Z,1.20
2019-02-17T05:55:08.537Z,1.30
2019-02-17T05:57:38.908Z,1.30
2019-02-17T06:00:12.270Z,1.30
2019-02-17T06:02:42.612Z,1.30
2019-02-17T06:05:12.955Z,1.30
2019-02-17T06:07:43.327Z,1.30
2019-02-17T06:10:13.641Z,1.40
2019-02-17T06:12:43.996Z,1.50
2019-02-17T06:15:14.322Z,1.50
2019-02-17T06:18:04.981Z,1.50
2019-02-17T06:20:35.314Z,1.50
2019-02-17T06:23:25.967Z,1.50
2019-02-17T06:25:56.313Z,1.60
2019-02-17T06:28:26.660Z,1.70
2019-02-17T06:30:57.013Z,1.80
2019-02-17T06:33:27.359Z,1.80
2019-02-17T06:35:57.725Z,1.90
2019-02-17T06:38:28.159Z,1.90
2019-02-17T06:40:58.508Z,1.90
2019-02-17T06:43:28.862Z,1.90
2019-02-17T06:45:59.359Z,1.90
2019-02-17T06:48:29.725Z,1.90
2019-02-17T06:51:00.079Z,1.90
2019-02-17T06:53:30.424Z,2.00
2019-02-17T06:56:02.482Z,2.00
2019-02-17T06:58:32.835Z,2.00
2019-02-17T07:01:03.345Z,2.00
2019-02-17T07:03:33.690Z,2.00
2019-02-17T07:06:08.354Z,2.10
2019-02-17T07:08:38.705Z,2.20
2019-02-17T07:11:09.045Z,2.30
2019-02-17T07:13:39.393Z,2.40
2019-02-17T07:16:09.722Z,2.50
2019-02-17T07:18:40.075Z,2.60
2019-02-17T07:21:10.412Z,2.70
2019-02-17T07:23:40.761Z,2.80
2019-02-17T07:26:11.093Z,3.00
2019-02-17T07:28:41.431Z,3.00
2019-02-17T07:31:15.404Z,3.20
2019-02-17T07:33:45.751Z,3.30
2019-02-17T07:36:16.094Z,3.40
2019-02-17T07:38:46.440Z,3.60
2019-02-17T07:41:16.774Z,3.60
2019-02-17T07:43:47.141Z,3.70
2019-02-17T07:46:17.483Z,3.80
2019-02-17T07:48:47.820Z,3.90
2019-02-17T07:51:18.169Z,4.00
2019-02-17T07:53:48.529Z,4.10
2019-02-17T07:56:18.878Z,4.20
2019-02-17T07:58:49.231Z,4.30
2019-02-17T08:01:20.536Z,4.40
2019-02-17T08:03:51.733Z,4.50
2019-02-17T08:06:22.068Z,4.60
2019-02-17T08:08:52.411Z,4.70
2019-02-17T08:11:22.745Z,4.70
2019-02-17T08:13:54.070Z,4.80
2019-02-17T08:16:24.397Z,4.80
2019-02-17T08:18:54.752Z,4.90
2019-02-17T08:21:25.096Z,5.00
2019-02-17T08:23:55.452Z,5.00
2019-02-17T08:26:25.787Z,5.10
2019-02-17T08:28:56.139Z,5.20
2019-02-17T08:31:26.541Z,5.30
2019-02-17T08:33:56.894Z,5.40
2019-02-17T08:36:27.268Z,5.60
2019-02-17T08:38:57.652Z,5.70
2019-02-17T08:41:27.997Z,5.80
2019-02-17T08:44:00.776Z,5.80
2019-02-17T08:46:30.482Z,5.90
2019-02-17T08:49:01.883Z,6.00
2019-02-17T08:51:32.244Z,6.10
2019-02-17T08:54:04.207Z,6.20
2019-02-17T08:56:34.555Z,6.30
2019-02-17T08:59:04.911Z,6.40
2019-02-17T09:01:35.263Z,6.50
2019-02-17T09:04:05.610Z,6.60
2019-02-17T09:06:35.975Z,6.70
2019-02-17T09:09:06.771Z,6.80
2019-02-17T09:11:37.114Z,7.00
2019-02-17T09:14:07.481Z,7.10
2019-02-17T09:16:37.824Z,7.20
2019-02-17T09:19:08.168Z,7.30
2019-02-17T09:21:38.514Z,7.30
2019-02-17T09:24:08.870Z,7.40
2019-02-17T09:26:39.220Z,7.50
2019-02-17T09:29:09.562Z,7.60
2019-02-17T09:31:39.907Z,7.80
2019-02-17T09:34:10.264Z,7.90
2019-02-17T09:36:40.605Z,8.00
2019-02-17T09:39:11.030Z,8.10
2019-02-17T09:41:41.371Z,8.20
2019-02-17T09:44:11.725Z,8.30
2019-02-17T09:46:42.062Z,8.40
2019-02-17T09:49:12.422Z,8.50
2019-02-17T09:51:42.758Z,8.60
2019-02-17T09:54:13.109Z,8.70
2019-02-17T09:56:43.464Z,8.90
2019-02-17T09:59:13.818Z,9.20
2019-02-17T10:01:44.166Z,9.50
2019-02-17T10:04:14.683Z,9.80
2019-02-17T10:06:45.029Z,10.30
2019-02-17T10:09:15.390Z,11.00
2019-02-17T10:11:45.793Z,11.50
2019-02-17T10:14:16.101Z,11.90
2019-02-17T10:16:46.455Z,12.40
2019-02-17T10:19:16.816Z,12.80
2019-02-17T10:21:47.160Z,13.10
2019-02-17T10:24:17.526Z,13.40
2019-02-17T10:26:48.032Z,13.90
2019-02-17T10:29:18.307Z,14.20
2019-02-17T10:31:48.660Z,14.50
2019-02-17T10:34:19.017Z,14.70
2019-02-17T10:36:49.365Z,15.00
2019-02-17T10:39:19.751Z,15.10
2019-02-17T10:41:50.100Z,15.30
2019-02-17T10:44:20.462Z,15.40
2019-02-17T10:46:50.818Z,15.50
2019-02-17T10:49:21.477Z,15.50
2019-02-17T10:51:51.831Z,15.60
2019-02-17T10:54:23.118Z,15.60
2019-02-17T10:56:53.625Z,15.70
2019-02-17T10:59:23.982Z,15.80
2019-02-17T11:01:54.340Z,16.00
2019-02-17T11:04:24.698Z,16.00
2019-02-17T11:06:55.111Z,16.10
2019-02-17T11:09:25.472Z,16.10
2019-02-17T11:11:55.810Z,16.10
2019-02-17T11:14:26.164Z,16.20
2019-02-17T11:16:56.505Z,16.40
2019-02-17T11:19:26.863Z,16.50
2019-02-17T11:21:57.205Z,16.60
2019-02-17T11:24:27.566Z,16.60
2019-02-17T11:26:57.911Z,16.50
2019-02-17T11:29:28.268Z,16.50
2019-02-17T11:31:58.632Z,16.70
2019-02-17T11:34:29.017Z,16.80
2019-02-17T11:36:59.364Z,17.00
2019-02-17T11:39:29.801Z,17.00
2019-02-17T11:42:01.790Z,17.10
2019-02-17T11:44:32.155Z,17.20
2019-02-17T11:47:02.532Z,17.20
2019-02-17T11:49:45.172Z,17.20
2019-02-17T11:52:15.522Z,17.20
2019-02-17T11:54:47.625Z,17.20
2019-02-17T11:57:18.104Z,17.20
2019-02-17T11:59:48.469Z,17.10
2019-02-17T12:02:24.912Z,17.00
2019-02-17T12:04:50.877Z,17.00
2019-02-17T12:07:21.228Z,16.90
2019-02-17T12:09:51.596Z,16.80
2019-02-17T12:12:21.959Z,16.80
2019-02-17T12:14:52.328Z,16.80
2019-02-17T12:17:22.671Z,16.80
2019-02-17T12:19:54.669Z,16.80
2019-02-17T12:22:26.680Z,16.80
2019-02-17T12:24:58.797Z,16.80
2019-02-17T12:27:30.786Z,16.70
2019-02-17T12:30:02.435Z,16.70
2019-02-17T12:32:32.775Z,16.70
2019-02-17T12:35:03.142Z,16.70
2019-02-17T12:37:33.495Z,16.70
2019-02-17T12:40:05.301Z,16.60
2019-02-17T12:42:35.643Z,16.30
2019-02-17T12:45:12.194Z,16.20
2019-02-17T12:47:43.177Z,16.10
2019-02-17T12:50:14.508Z,16.00
2019-02-17T12:52:47.452Z,15.90
2019-02-17T12:55:18.051Z,15.70
2019-02-17T12:57:48.406Z,15.60
2019-02-17T13:00:19.152Z,15.50
2019-02-17T13:02:49.508Z,15.40
2019-02-17T13:05:19.935Z,15.40
2019-02-17T13:07:50.355Z,15.30
2019-02-17T13:10:20.722Z,15.20
2019-02-17T13:12:51.066Z,15.20
2019-02-17T13:15:21.420Z,15.10
2019-02-17T13:17:53.037Z,15.10
2019-02-17T13:20:23.530Z,15.10
2019-02-17T13:22:53.871Z,15.00
2019-02-17T13:25:24.235Z,15.00
2019-02-17T13:27:54.606Z,15.00
2019-02-17T13:30:26.991Z,15.00
2019-02-17T13:32:57.341Z,15.00
2019-02-17T13:35:27.846Z,15.00
2019-02-17T13:37:58.201Z,15.00
2019-02-17T13:40:28.564Z,15.00
2019-02-17T13:42:58.912Z,15.00
2019-02-17T13:45:29.291Z,15.00
2019-02-17T13:47:59.654Z,15.00
2019-02-17T13:50:29.997Z,15.00
2019-02-17T13:53:10.983Z,15.00
2019-02-17T13:55:32.418Z,15.00
2019-02-17T13:58:02.763Z,15.00
2019-02-17T14:00:33.114Z,15.00
2019-02-17T14:03:04.569Z,15.00
2019-02-17T14:05:35.981Z,15.00
2019-02-17T14:08:06.329Z,15.00
2019-02-17T14:10:36.715Z,15.00
2019-02-17T14:13:07.060Z,15.00
2019-02-17T14:15:37.440Z,15.00
2019-02-17T14:18:07.778Z,15.00
2019-02-17T14:20:38.147Z,15.10
2019-02-17T14:23:09.479Z,15.10
2019-02-17T14:25:39.835Z,15.10
2019-02-17T14:28:11.164Z,15.20
2019-02-17T14:30:41.517Z,15.20
2019-02-17T14:33:11.875Z,15.20
2019-02-17T14:35:42.220Z,15.20
2019-02-17T14:38:12.579Z,15.20
2019-02-17T14:40:42.921Z,15.30
2019-02-17T14:43:13.288Z,15.30
2019-02-17T14:45:43.639Z,15.30
2019-02-17T14:48:14.004Z,15.30
2019-02-17T14:50:44.346Z,15.30
2019-02-17T14:53:16.155Z,15.30
2019-02-17T14:55:46.635Z,15.20
2019-02-17T14:58:16.994Z,15.20
2019-02-17T15:00:47.344Z,15.20
2019-02-17T15:03:17.712Z,15.20
2019-02-17T15:05:48.057Z,15.10
2019-02-17T15:08:18.403Z,15.10
2019-02-17T15:10:48.763Z,15.10
2019-02-17T15:13:24.575Z,15.10
2019-02-17T15:15:51.162Z,15.10
2019-02-17T15:18:21.541Z,15.10
2019-02-17T15:20:51.873Z,15.00
2019-02-17T15:23:22.242Z,15.00
2019-02-17T15:25:52.583Z,15.00
2019-02-17T15:28:22.942Z,14.90
2019-02-17T15:30:53.281Z,14.80
2019-02-17T15:33:23.645Z,14.80
2019-02-17T15:35:53.989Z,14.80
2019-02-17T15:38:24.425Z,14.80
2019-02-17T15:40:54.798Z,14.80
2019-02-17T15:43:25.177Z,14.80
2019-02-17T15:45:55.512Z,14.70
2019-02-17T15:48:25.999Z,14.70
2019-02-17T16:04:28.480Z,14.30
2019-02-17T16:06:57.000Z,14.30
2019-02-17T16:09:27.356Z,14.30
2019-02-17T16:11:57.715Z,14.20
2019-02-17T16:14:28.073Z,14.10
2019-02-17T16:16:58.423Z,14.10
2019-02-17T16:19:30.392Z,14.00
2019-02-17T16:22:00.749Z,13.90
2019-02-17T16:40:43.584Z,13.40
2019-02-17T16:43:13.942Z,13.20
2019-02-17T16:45:44.375Z,13.10
2019-02-17T16:48:14.733Z,13.00
2019-02-17T16:50:45.096Z,12.90
2019-02-17T16:53:15.446Z,12.80
2019-02-17T16:55:45.810Z,12.60
2019-02-17T16:58:16.161Z,12.50
2019-02-17T17:00:46.512Z,12.40
2019-02-17T17:03:16.868Z,12.40
2019-02-17T17:05:47.531Z,12.30
2019-02-17T17:08:17.916Z,12.10
2019-02-17T17:10:48.278Z,12.00
2019-02-17T17:13:18.715Z,11.80
2019-02-17T17:15:49.058Z,11.80
2019-02-17T17:18:19.414Z,11.80
2019-02-17T17:20:49.771Z,11.70
2019-02-17T17:23:20.128Z,11.70
2019-02-17T17:25:50.470Z,11.50
2019-02-17T17:28:20.834Z,11.50
2019-02-17T17:30:51.180Z,11.30
2019-02-17T17:33:21.547Z,11.20
2019-02-17T17:35:51.900Z,11.10
2019-02-17T17:38:22.927Z,11.00
2019-02-17T17:40:53.263Z,10.90
2019-02-17T17:43:23.667Z,10.80
2019-02-17T17:45:55.031Z,10.70
2019-02-17T17:48:25.392Z,10.60
2019-02-17T17:50:55.746Z,10.50
2019-02-17T17:53:26.109Z,10.40
2019-02-17T17:55:56.468Z,10.30
2019-02-17T17:58:26.826Z,10.20
2019-02-17T18:00:57.185Z,10.10
2019-02-17T18:03:27.599Z,10.00
2019-02-17T18:05:58.012Z,10.00
2019-02-17T18:08:28.372Z,9.90
2019-02-17T18:10:58.717Z,9.80
2019-02-17T18:13:29.083Z,9.70
2019-02-17T18:15:59.422Z,9.70
2019-02-17T18:18:29.755Z,9.60
2019-02-17T18:21:00.183Z,9.50
2019-02-17T18:23:30.520Z,9.40
2019-02-17T18:26:00.909Z,9.30
2019-02-17T18:28:31.266Z,9.20
2019-02-17T18:31:01.622Z,9.10
2019-02-17T18:33:31.979Z,9.00
2019-02-17T18:36:02.335Z,9.00
2019-02-17T18:38:33.656Z,8.90
2019-02-17T18:41:04.014Z,8.80
2019-02-17T18:43:34.354Z,8.70
2019-02-17T18:46:06.671Z,8.70
2019-02-17T18:48:37.013Z,8.70
2019-02-17T18:51:07.494Z,8.70
2019-02-17T18:53:37.845Z,8.70
2019-02-17T18:56:08.191Z,8.60
2019-02-17T18:58:38.659Z,8.60
2019-02-17T19:01:16.987Z,8.60
2019-02-17T19:03:47.345Z,8.50
2019-02-17T19:06:17.703Z,8.50
2019-02-17T19:08:48.048Z,8.40
2019-02-17T19:11:18.392Z,8.30
2019-02-17T19:13:48.743Z,8.20
2019-02-17T19:16:19.087Z,8.20
2019-02-17T19:18:49.427Z,8.10
2019-02-17T19:21:19.793Z,8.00
2019-02-17T19:23:50.138Z,8.00
2019-02-17T19:26:20.492Z,7.90
2019-02-17T19:28:50.841Z,7.80
2019-02-17T19:31:21.199Z,7.70
2019-02-17T19:33:51.551Z,7.60
2019-02-17T19:36:21.935Z,7.60
2019-02-17T19:38:52.304Z,7.50
2019-02-17T19:41:22.643Z,7.40
2019-02-17T19:43:53.023Z,7.40
2019-02-17T19:46:23.402Z,7.40
2019-02-17T19:48:56.581Z,7.30
2019-02-17T19:51:26.929Z,7.30
2019-02-17T19:53:57.271Z,7.20
2019-02-17T19:56:27.637Z,7.20
2019-02-17T19:58:57.977Z,7.20
2019-02-17T20:01:28.327Z,7.10
2019-02-17T20:04:09.260Z,7.10
2019-02-17T20:06:39.627Z,7.00
2019-02-17T20:09:15.364Z,6.90
2019-02-17T20:11:45.675Z,6.90
2019-02-17T20:14:16.031Z,6.90
2019-02-17T20:16:46.374Z,6.80
2019-02-17T20:19:16.714Z,6.80
2019-02-17T20:21:47.081Z,6.70
2019-02-17T20:24:17.420Z,6.70
2019-02-17T20:26:48.031Z,6.60
2019-02-17T20:29:18.291Z,6.60
2019-02-17T20:31:48.645Z,6.50
2019-02-17T20:34:19.001Z,6.50
2019-02-17T20:36:49.371Z,6.50
2019-02-17T20:39:19.708Z,6.40
2019-02-17T20:41:50.059Z,6.40
2019-02-17T20:44:20.395Z,6.30
2019-02-17T20:46:50.767Z,6.30
2019-02-17T20:49:21.109Z,6.30
2019-02-17T20:52:04.023Z,6.30
2019-02-17T20:54:34.368Z,6.20
2019-02-17T20:57:05.207Z,6.20
2019-02-17T20:59:35.550Z,6.10
2019-02-17T21:02:05.974Z,6.10
2019-02-17T21:04:36.316Z,6.10
2019-02-17T21:07:06.675Z,6.00
2019-02-17T21:09:37.019Z,6.00
2019-02-17T21:12:07.373Z,6.00
2019-02-17T21:14:37.722Z,6.00
2019-02-17T21:17:08.068Z,6.00
2019-02-17T21:19:38.711Z,6.00
2019-02-17T21:22:09.152Z,6.00
2019-02-17T21:24:40.473Z,6.00
2019-02-17T21:27:10.832Z,6.00
2019-02-17T21:29:41.176Z,6.00
2019-02-17T21:32:11.523Z,5.90
2019-02-17T21:34:41.869Z,6.00
2019-02-17T21:37:12.236Z,6.00
2019-02-17T21:39:42.573Z,6.00
2019-02-17T21:42:13.358Z,5.90
2019-02-17T21:44:43.712Z,6.00
2019-02-17T21:47:14.072Z,5.90
2019-02-17T21:49:44.405Z,5.90
2019-02-17T21:52:14.762Z,5.90
2019-02-17T21:54:45.116Z,5.80
2019-02-17T21:57:15.462Z,5.80
2019-02-17T21:59:45.797Z,5.70
2019-02-17T22:02:16.154Z,5.60
2019-02-17T22:04:46.521Z,5.70
2019-02-17T22:07:16.876Z,5.60
2019-02-17T22:09:47.222Z,5.60
2019-02-17T22:12:17.577Z,5.60
2019-02-17T22:14:47.916Z,5.60
2019-02-17T22:17:18.279Z,5.50
2019-02-17T22:19:48.625Z,5.50
2019-02-17T22:22:18.990Z,5.50
2019-02-17T22:24:49.326Z,5.40
2019-02-17T22:27:20.649Z,5.30
2019-02-17T22:29:50.990Z,5.30
2019-02-17T22:32:21.341Z,5.30
2019-02-17T22:34:52.654Z,5.30
2019-02-17T22:37:23.015Z,5.20
2019-02-17T22:39:53.354Z,5.20
2019-02-17T22:42:23.767Z,5.10
2019-02-17T22:44:54.101Z,5.10
2019-02-17T22:47:24.460Z,5.10
2019-02-17T22:49:54.794Z,5.00
2019-02-17T22:52:25.159Z,5.00
2019-02-17T22:54:55.496Z,5.00
2019-02-17T22:57:25.844Z,4.90
2019-02-17T22:59:56.171Z,4.90
2019-02-17T23:02:26.608Z,4.80
2019-02-17T23:04:56.949Z,4.80
2019-02-17T23:07:27.297Z,4.80
2019-02-17T23:09:57.634Z,4.70
2019-02-17T23:12:27.993Z,4.70
2019-02-17T23:14:58.322Z,4.70
2019-02-17T23:17:28.763Z,4.60
2019-02-17T23:20:00.405Z,4.60
2019-02-17T23:22:30.718Z,4.60
2019-02-17T23:25:01.393Z,4.60
2019-02-17T23:27:31.741Z,4.50
2019-02-17T23:30:02.080Z,4.50
2019-02-17T23:32:32.691Z,4.50
2019-02-17T23:35:03.055Z,4.40
2019-02-17T23:37:33.397Z,4.40
2019-02-17T23:40:05.263Z,4.40
2019-02-17T23:42:35.609Z,4.40
2019-02-17T23:45:29.090Z,4.30
2019-02-17T23:48:00.016Z,4.30
2019-02-17T23:50:30.895Z,4.20
2019-02-17T23:53:01.253Z,4.20
2019-02-17T23:55:31.564Z,4.20
2019-02-17T23:58:01.966Z,4.20
